createdAt,value
2023-04-05T00:01:14.556Z,-3.20
2023-04-05T00:03:43.791Z,-3.20
2023-04-05T00:06:13.316Z,-3.30
2023-04-05T00:08:41.328Z,-3.40
2023-04-05T00:11:11.095Z,-3.50
2023-04-05T00:13:39.197Z,-3.50
2023-04-05T00:16:08.440Z,-3.60
2023-04-05T00:18:38.546Z,-3.60
2023-04-05T00:21:07.357Z,-3.70
2023-04-05T00:23:38.538Z,-3.80
2023-04-05T00:26:06.961Z,-3.80
2023-04-05T00:28:36.679Z,-3.90
2023-04-05T00:31:05.477Z,-3.90
2023-04-05T00:33:33.749Z,-4.00
2023-04-05T00:36:11.364Z,-4.00
2023-04-05T00:38:39.931Z,-4.00
2023-04-05T00:41:08.029Z,-4.00
2023-04-05T00:43:37.464Z,-4.00
2023-04-05T00:46:05.760Z,-4.10
2023-04-05T00:48:34.037Z,-4.10
2023-04-05T00:51:02.195Z,-4.20
2023-04-05T00:53:30.520Z,-4.30
2023-04-05T00:55:59.001Z,-4.30
2023-04-05T00:58:27.270Z,-4.30
2023-04-05T01:01:05.474Z,-4.30
2023-04-05T01:03:37.106Z,-4.40
2023-04-05T01:06:24.060Z,-4.40
2023-04-05T01:09:01.393Z,-4.50
2023-04-05T01:11:33.291Z,-4.50
2023-04-05T01:14:01.802Z,-4.60
2023-04-05T01:16:31.528Z,-4.60
2023-04-05T01:18:59.773Z,-4.60
2023-04-05T01:22:14.307Z,-4.70
2023-04-05T01:25:24.364Z,-4.70
2023-04-05T01:28:11.647Z,-4.80
2023-04-05T01:30:45.358Z,-4.80
2023-04-05T01:33:20.808Z,-4.90
2023-04-05T01:35:54.554Z,-4.90
2023-04-05T01:38:26.168Z,-4.90
2023-04-05T01:40:55.126Z,-4.90
2023-04-05T01:43:23.213Z,-4.90
2023-04-05T01:45:53.788Z,-5.00
2023-04-05T01:48:21.690Z,-5.00
2023-04-05T01:50:49.799Z,-5.00
2023-04-05T01:53:17.938Z,-5.10
2023-04-05T01:55:46.135Z,-5.10
2023-04-05T01:58:14.144Z,-5.20
2023-04-05T02:00:42.626Z,-5.20
2023-04-05T02:03:12.417Z,-5.20
2023-04-05T02:05:40.579Z,-5.20
2023-04-05T02:08:08.592Z,-5.20
2023-04-05T02:10:36.661Z,-5.20
2023-04-05T02:13:04.694Z,-5.30
2023-04-05T02:15:34.062Z,-5.30
2023-04-05T02:18:02.829Z,-5.30
2023-04-05T02:20:32.934Z,-5.30
2023-04-05T02:23:02.003Z,-5.40
2023-04-05T02:25:30.259Z,-5.40
2023-04-05T02:27:58.585Z,-5.50
2023-04-05T02:30:29.164Z,-5.50
2023-04-05T02:32:57.404Z,-5.60
2023-04-05T02:35:25.655Z,-5.60
2023-04-05T02:37:56.637Z,-5.50
2023-04-05T02:40:25.297Z,-5.50
2023-04-05T02:42:53.369Z,-5.60
2023-04-05T02:45:21.441Z,-5.60
2023-04-05T02:47:49.516Z,-5.70
2023-04-05T02:50:20.513Z,-5.70
2023-04-05T02:52:48.923Z,-5.70
2023-04-05T02:55:18.856Z,-5.70
2023-04-05T02:57:47.195Z,-5.80
2023-04-05T03:00:16.435Z,-5.80
2023-04-05T03:02:44.583Z,-5.80
2023-04-05T03:05:13.991Z,-5.90
2023-04-05T03:07:42.697Z,-5.90
2023-04-05T03:10:10.768Z,-5.90
2023-04-05T03:12:40.209Z,-5.80
2023-04-05T03:15:08.784Z,-5.80
2023-04-05T03:17:37.353Z,-5.80
2023-04-05T03:20:06.507Z,-5.80
2023-04-05T03:22:34.617Z,-5.90
2023-04-05T03:25:03.525Z,-5.90
2023-04-05T03:27:31.973Z,-6.00
2023-04-05T03:30:01.424Z,-6.00
2023-04-05T03:32:29.296Z,-6.00
2023-04-05T03:34:57.371Z,-6.10
2023-04-05T03:37:25.458Z,-6.10
2023-04-05T03:39:53.553Z,-6.20
2023-04-05T03:42:21.651Z,-6.20
2023-04-05T03:44:53.619Z,-6.20
2023-04-05T03:47:23.115Z,-6.20
2023-04-05T03:49:51.284Z,-6.20
2023-04-05T03:52:19.339Z,-6.30
2023-04-05T03:54:47.380Z,-6.30
2023-04-05T03:57:15.517Z,-6.30
2023-04-05T03:59:43.587Z,-6.30
2023-04-05T04:02:11.661Z,-6.30
2023-04-05T04:04:41.231Z,-6.40
2023-04-05T04:07:09.377Z,-6.40
2023-04-05T04:09:37.425Z,-6.40
2023-04-05T04:12:06.042Z,-6.40
2023-04-05T04:14:36.400Z,-6.40
2023-04-05T04:17:04.439Z,-6.40
2023-04-05T04:19:32.634Z,-6.50
2023-04-05T04:22:02.493Z,-6.50
2023-04-05T04:24:32.568Z,-6.50
2023-04-05T04:27:00.669Z,-6.50
2023-04-05T04:29:31.356Z,-6.50
2023-04-05T04:32:01.060Z,-6.50
2023-04-05T04:34:30.547Z,-6.50
2023-04-05T04:37:01.498Z,-6.50
2023-04-05T04:39:32.821Z,-6.50
2023-04-05T04:42:01.427Z,-6.50
2023-04-05T04:44:31.254Z,-6.50
2023-04-05T04:46:59.434Z,-6.50
2023-04-05T04:49:28.328Z,-6.50
2023-04-05T04:51:58.540Z,-6.50
2023-04-05T04:54:28.766Z,-6.50
2023-04-05T04:56:58.166Z,-6.50
2023-04-05T04:59:26.373Z,-6.50
2023-04-05T05:01:54.497Z,-6.50
2023-04-05T05:04:22.822Z,-6.50
2023-04-05T05:06:52.546Z,-6.40
2023-04-05T05:09:20.728Z,-6.40
2023-04-05T05:11:48.800Z,-6.40
2023-04-05T05:14:18.208Z,-6.30
2023-04-05T05:16:46.323Z,-6.30
2023-04-05T05:19:14.712Z,-6.30
2023-04-05T05:21:42.901Z,-6.30
2023-04-05T05:24:11.192Z,-6.30
2023-04-05T05:26:39.253Z,-6.20
2023-04-05T05:29:07.311Z,-6.20
2023-04-05T05:31:36.801Z,-6.10
2023-04-05T05:34:04.894Z,-6.10
2023-04-05T05:36:33.521Z,-6.00
2023-04-05T05:39:01.570Z,-5.80
2023-04-05T05:41:29.616Z,-5.70
2023-04-05T05:43:57.752Z,-5.50
2023-04-05T05:46:26.713Z,-5.30
2023-04-05T05:48:56.806Z,-5.10
2023-04-05T05:51:24.854Z,-5.00
2023-04-05T05:53:52.996Z,-4.80
2023-04-05T05:56:21.082Z,-4.70
2023-04-05T05:58:49.234Z,-4.60
2023-04-05T06:01:17.416Z,-4.40
2023-04-05T06:03:45.926Z,-4.30
2023-04-05T06:06:15.594Z,-4.20
2023-04-05T06:08:43.656Z,-4.00
2023-04-05T06:11:18.850Z,-3.90
2023-04-05T06:13:47.099Z,-3.70
2023-04-05T06:16:15.270Z,-3.60
2023-04-05T06:18:43.357Z,-3.40
2023-04-05T06:21:11.413Z,-3.20
2023-04-05T06:23:42.088Z,-3.00
2023-04-05T06:26:10.662Z,-2.80
2023-04-05T06:28:38.833Z,-2.70
2023-04-05T06:31:06.853Z,-2.50
2023-04-05T06:33:34.901Z,-2.30
2023-04-05T06:36:02.985Z,-2.10
2023-04-05T06:38:31.052Z,-2.00
2023-04-05T06:41:00.487Z,-1.80
2023-04-05T06:43:28.539Z,-1.70
2023-04-05T06:45:57.382Z,-1.50
2023-04-05T06:48:25.605Z,-1.40
2023-04-05T06:50:58.762Z,-1.20
2023-04-05T06:53:28.120Z,-1.00
2023-04-05T06:55:56.288Z,-1.00
2023-04-05T06:58:27.342Z,-0.80
2023-04-05T07:00:56.213Z,-0.60
2023-04-05T07:03:24.335Z,-0.40
2023-04-05T07:05:54.099Z,-0.30
2023-04-05T07:08:22.702Z,-0.10
2023-04-05T07:10:51.336Z,0.10
2023-04-05T07:13:20.285Z,0.30
2023-04-05T07:15:49.925Z,0.70
2023-04-05T07:18:18.169Z,1.10
2023-04-05T07:20:49.014Z,1.40
2023-04-05T07:23:18.284Z,1.60
2023-04-05T07:25:46.476Z,1.70
2023-04-05T07:28:14.544Z,2.00
2023-04-05T07:30:42.795Z,2.20
2023-04-05T07:33:12.878Z,2.30
2023-04-05T07:35:41.017Z,2.40
2023-04-05T07:38:11.207Z,2.70
2023-04-05T07:40:39.744Z,2.80
2023-04-05T07:43:07.940Z,2.90
2023-04-05T07:45:35.994Z,2.90
2023-04-05T07:48:04.176Z,3.00
2023-04-05T07:50:34.877Z,3.00
2023-04-05T07:53:03.273Z,3.20
2023-04-05T07:55:31.704Z,3.50
2023-04-05T07:57:59.831Z,3.60
2023-04-05T08:00:27.963Z,3.90
2023-04-05T08:02:57.348Z,4.10
2023-04-05T08:05:29.388Z,4.20
2023-04-05T08:07:59.099Z,4.40
2023-04-05T08:10:27.271Z,4.50
2023-04-05T08:12:55.453Z,4.60
2023-04-05T08:15:23.501Z,4.80
2023-04-05T08:17:51.584Z,4.90
2023-04-05T08:20:19.795Z,5.00
2023-04-05T08:22:47.847Z,5.20
2023-04-05T08:25:17.389Z,5.40
2023-04-05T08:27:45.272Z,5.60
2023-04-05T08:30:13.679Z,5.80
2023-04-05T08:32:42.076Z,6.10
2023-04-05T08:35:10.700Z,6.20
2023-04-05T08:37:38.764Z,6.40
2023-04-05T08:40:08.590Z,6.00
2023-04-05T08:42:43.168Z,5.60
2023-04-05T08:45:12.438Z,5.20
2023-04-05T08:47:40.809Z,4.90
2023-04-05T08:50:13.589Z,4.90
2023-04-05T08:52:43.709Z,4.80
2023-04-05T08:55:11.766Z,4.80
2023-04-05T08:57:45.697Z,4.90
2023-04-05T09:00:15.527Z,4.80
2023-04-05T09:02:45.768Z,5.00
2023-04-05T09:05:14.864Z,5.20
2023-04-05T09:07:44.097Z,5.40
2023-04-05T09:10:14.908Z,5.50
2023-04-05T09:12:44.426Z,5.60
2023-04-05T09:15:12.469Z,5.60
2023-04-05T09:17:42.735Z,5.50
2023-04-05T09:20:10.974Z,5.50
2023-04-05T09:22:46.049Z,5.50
2023-04-05T09:25:33.956Z,5.50
2023-04-05T09:28:04.301Z,5.50
2023-04-05T09:30:32.959Z,5.50
2023-04-05T09:33:01.064Z,5.70
2023-04-05T09:35:31.932Z,6.20
2023-04-05T09:38:01.560Z,6.50
2023-04-05T09:40:43.889Z,6.50
2023-04-05T09:43:13.858Z,6.50
2023-04-05T09:45:43.070Z,6.50
2023-04-05T09:48:12.547Z,6.70
2023-04-05T09:50:41.254Z,6.80
2023-04-05T09:53:15.570Z,6.90
2023-04-05T09:55:44.417Z,7.00
2023-04-05T09:58:21.676Z,6.90
2023-04-05T10:00:59.992Z,6.90
2023-04-05T10:03:48.018Z,7.00
2023-04-05T10:06:16.976Z,6.90
2023-04-05T10:08:47.556Z,6.80
2023-04-05T10:11:19.132Z,6.70
2023-04-05T10:13:51.347Z,6.70
2023-04-05T10:16:24.753Z,6.50
2023-04-05T10:18:54.286Z,6.40
2023-04-05T10:21:23.035Z,6.40
2023-04-05T10:23:59.476Z,6.40
2023-04-05T10:26:37.504Z,6.30
2023-04-05T10:29:13.080Z,6.40
2023-04-05T10:31:52.147Z,6.30
2023-04-05T10:34:30.800Z,6.40
2023-04-05T10:37:01.659Z,6.40
2023-04-05T10:39:31.335Z,6.40
2023-04-05T10:42:02.699Z,6.50
2023-04-05T10:44:37.905Z,6.50
2023-04-05T10:47:08.217Z,6.70
2023-04-05T10:49:41.230Z,6.80
2023-04-05T10:52:10.523Z,6.90
2023-04-05T10:54:38.605Z,7.30
2023-04-05T10:57:09.760Z,7.40
2023-04-05T10:59:44.100Z,7.40
2023-04-05T11:02:12.764Z,7.30
2023-04-05T11:04:42.150Z,7.30
2023-04-05T11:07:15.612Z,7.10
2023-04-05T11:09:56.963Z,7.00
2023-04-05T11:13:02.637Z,7.00
2023-04-05T11:15:33.300Z,7.00
2023-04-05T11:18:09.453Z,6.90
2023-04-05T11:20:48.806Z,6.80
2023-04-05T11:23:19.588Z,6.60
2023-04-05T11:25:51.255Z,6.70
2023-04-05T11:28:37.611Z,6.70
2023-04-05T11:31:19.125Z,6.50
2023-04-05T11:34:00.037Z,6.50
2023-04-05T11:36:33.585Z,6.40
2023-04-05T11:39:26.368Z,6.60
2023-04-05T11:42:02.738Z,6.70
2023-04-05T11:44:40.494Z,6.60
2023-04-05T11:47:11.341Z,6.60
2023-04-05T11:49:40.256Z,6.60
2023-04-05T11:52:13.314Z,6.70
2023-04-05T11:54:46.003Z,7.00
2023-04-05T11:57:16.627Z,7.40
2023-04-05T11:59:45.557Z,7.70
2023-04-05T12:02:15.676Z,8.00
2023-04-05T12:04:43.778Z,8.00
2023-04-05T12:07:16.570Z,8.00
2023-04-05T12:10:07.240Z,8.20
2023-04-05T12:12:38.198Z,8.20
2023-04-05T12:15:09.448Z,8.30
2023-04-05T12:17:47.092Z,8.60
2023-04-05T12:20:17.134Z,8.70
2023-04-05T12:22:46.363Z,8.60
2023-04-05T12:25:14.886Z,8.50
2023-04-05T12:27:43.242Z,8.60
2023-04-05T12:30:15.716Z,8.90
2023-04-05T12:32:51.188Z,9.00
2023-04-05T12:35:20.474Z,8.90
2023-04-05T12:37:48.622Z,9.10
2023-04-05T12:40:22.004Z,9.00
2023-04-05T12:42:50.396Z,9.10
2023-04-05T12:45:18.766Z,9.20
2023-04-05T12:47:53.882Z,9.70
2023-04-05T12:50:28.768Z,9.70
2023-04-05T12:52:59.029Z,9.60
2023-04-05T12:55:28.975Z,9.70
2023-04-05T12:57:59.445Z,10.30
2023-04-05T13:00:29.548Z,10.60
2023-04-05T13:03:00.641Z,11.40
2023-04-05T13:05:30.409Z,11.80
2023-04-05T13:07:58.497Z,11.90
2023-04-05T13:10:27.470Z,11.90
2023-04-05T13:12:55.685Z,12.80
2023-04-05T13:15:23.851Z,13.40
2023-04-05T13:17:53.344Z,13.40
2023-04-05T13:20:23.335Z,13.60
2023-04-05T13:22:51.652Z,13.50
2023-04-05T13:25:19.834Z,14.60
2023-04-05T13:27:47.953Z,15.60
2023-04-05T13:30:16.413Z,16.10
2023-04-05T13:32:44.590Z,15.50
2023-04-05T13:35:13.016Z,14.50
2023-04-05T13:37:42.440Z,13.90
2023-04-05T13:40:10.897Z,13.20
2023-04-05T13:42:39.056Z,12.80
2023-04-05T13:45:08.260Z,12.30
2023-04-05T13:47:36.583Z,12.00
2023-04-05T13:50:05.087Z,11.60
2023-04-05T13:52:33.144Z,11.40
2023-04-05T13:55:03.602Z,11.20
2023-04-05T13:57:32.507Z,11.00
2023-04-05T14:00:00.783Z,10.80
2023-04-05T14:02:29.346Z,10.50
2023-04-05T14:04:57.564Z,10.40
2023-04-05T14:07:26.243Z,10.30
2023-04-05T14:09:54.406Z,10.10
2023-04-05T14:12:24.597Z,10.00
2023-04-05T14:14:52.817Z,9.90
2023-04-05T14:17:20.982Z,9.70
2023-04-05T14:19:49.107Z,9.50
2023-04-05T14:22:17.223Z,9.30
2023-04-05T14:24:45.368Z,9.20
2023-04-05T14:27:13.465Z,9.10
2023-04-05T14:29:44.144Z,8.90
2023-04-05T14:32:12.351Z,8.70
2023-04-05T14:34:40.571Z,8.90
2023-04-05T14:37:08.884Z,8.90
2023-04-05T14:39:36.996Z,8.90
2023-04-05T14:42:05.341Z,9.30
2023-04-05T14:44:33.466Z,10.10
2023-04-05T14:47:02.955Z,11.00
2023-04-05T14:49:30.906Z,11.40
2023-04-05T14:51:59.023Z,11.80
2023-04-05T14:54:27.255Z,12.10
2023-04-05T14:56:55.408Z,12.30
2023-04-05T14:59:23.620Z,12.40
2023-04-05T15:01:51.740Z,12.80
2023-04-05T15:04:21.301Z,12.60
2023-04-05T15:06:49.257Z,12.60
2023-04-05T15:09:17.788Z,12.10
2023-04-05T15:11:46.042Z,11.60
2023-04-05T15:14:28.618Z,11.20
2023-04-05T15:16:59.660Z,10.80
2023-04-05T15:19:30.514Z,10.50
2023-04-05T15:21:58.847Z,10.20
2023-04-05T15:24:27.094Z,9.90
2023-04-05T15:27:01.635Z,9.40
2023-04-05T15:29:30.042Z,9.10
2023-04-05T15:31:58.512Z,9.00
2023-04-05T15:34:28.834Z,9.00
2023-04-05T15:36:57.245Z,8.90
2023-04-05T15:39:25.976Z,8.90
2023-04-05T15:41:54.216Z,8.80
2023-04-05T15:44:22.346Z,8.80
2023-04-05T15:46:50.540Z,8.60
2023-04-05T15:49:18.724Z,8.50
2023-04-05T15:51:48.393Z,8.30
2023-04-05T15:54:18.848Z,8.10
2023-04-05T15:56:47.229Z,8.00
2023-04-05T15:59:15.675Z,7.90
2023-04-05T16:01:44.225Z,7.70
2023-04-05T16:04:12.445Z,7.60
2023-04-05T16:06:40.848Z,7.60
2023-04-05T16:09:10.390Z,7.50
2023-04-05T16:11:38.289Z,7.40
2023-04-05T16:14:06.470Z,7.30
2023-04-05T16:16:42.099Z,7.20
2023-04-05T16:19:21.130Z,7.00
2023-04-05T16:21:49.519Z,6.80
2023-04-05T16:24:19.814Z,6.60
2023-04-05T16:26:47.994Z,6.40
2023-04-05T16:29:16.127Z,6.20
2023-04-05T16:31:47.373Z,6.00
2023-04-05T16:34:16.055Z,5.80
2023-04-05T16:36:44.268Z,5.70
2023-04-05T16:39:12.410Z,5.50
2023-04-05T16:41:42.204Z,5.40
2023-04-05T16:44:10.568Z,5.30
2023-04-05T16:46:39.769Z,5.20
2023-04-05T16:49:07.984Z,5.20
2023-04-05T16:51:36.817Z,5.10
2023-04-05T16:54:05.261Z,4.90
2023-04-05T16:56:33.441Z,4.80
2023-04-05T16:59:05.001Z,4.60
2023-04-05T17:01:35.009Z,4.50
2023-04-05T17:04:03.784Z,4.40
2023-04-05T17:06:32.478Z,4.30
2023-04-05T17:09:00.614Z,4.20
2023-04-05T17:11:29.237Z,4.10
2023-04-05T17:13:59.251Z,3.90
2023-04-05T17:16:28.756Z,3.80
2023-04-05T17:18:56.820Z,3.60
2023-04-05T17:21:25.833Z,3.50
2023-04-05T17:23:53.991Z,3.40
2023-04-05T17:26:23.134Z,3.30
2023-04-05T17:28:51.243Z,3.20
2023-04-05T17:31:20.272Z,3.00
2023-04-05T17:33:49.868Z,2.80
2023-04-05T17:36:17.944Z,2.70
2023-04-05T17:38:46.159Z,2.60
2023-04-05T17:41:14.298Z,2.50
2023-04-05T17:43:42.527Z,2.40
2023-04-05T17:46:13.728Z,2.20
2023-04-05T17:48:42.168Z,2.10
2023-04-05T17:51:11.933Z,2.00
2023-04-05T17:53:39.848Z,1.90
2023-04-05T17:56:08.233Z,1.80
2023-04-05T17:58:36.359Z,1.70
2023-04-05T18:01:04.632Z,1.60
2023-04-05T18:03:32.889Z,1.50
2023-04-05T18:06:01.052Z,1.40
2023-04-05T18:08:30.578Z,1.30
2023-04-05T18:10:59.005Z,1.20
2023-04-05T18:13:28.147Z,1.20
2023-04-05T18:15:57.395Z,1.10
2023-04-05T18:18:26.276Z,1.00
2023-04-05T18:20:55.470Z,1.00
2023-04-05T18:23:24.950Z,0.90
2023-04-05T18:25:56.114Z,0.90
2023-04-05T18:28:24.612Z,0.80
2023-04-05T18:30:53.102Z,0.80
2023-04-05T18:33:22.473Z,0.70
2023-04-05T18:35:51.225Z,0.70
2023-04-05T18:38:19.629Z,0.60
2023-04-05T18:40:47.823Z,0.60
2023-04-05T18:43:17.852Z,0.50
2023-04-05T18:45:46.049Z,0.40
2023-04-05T18:48:15.452Z,0.20
2023-04-05T18:50:43.616Z,0.10
2023-04-05T18:53:11.749Z,0.00
2023-04-05T18:55:39.909Z,-0.20
2023-04-05T18:58:07.996Z,-0.20
2023-04-05T19:00:37.557Z,-0.30
2023-04-05T19:03:05.579Z,-0.30
2023-04-05T19:05:33.757Z,-0.30
2023-04-05T19:08:01.911Z,-0.40
2023-04-05T19:10:30.074Z,-0.40
2023-04-05T19:12:58.197Z,-0.50
2023-04-05T19:15:26.653Z,-0.60
2023-04-05T19:17:56.260Z,-0.60
2023-04-05T19:20:24.154Z,-0.70
2023-04-05T19:22:52.252Z,-0.70
2023-04-05T19:25:20.380Z,-0.80
2023-04-05T19:27:48.745Z,-0.90
2023-04-05T19:30:17.119Z,-0.90
2023-04-05T19:32:45.291Z,-1.00
2023-04-05T19:35:14.875Z,-1.00
2023-04-05T19:37:42.784Z,-1.00
2023-04-05T19:40:12.312Z,-1.10
2023-04-05T19:42:47.188Z,-1.10
2023-04-05T19:45:21.647Z,-1.20
2023-04-05T19:47:49.844Z,-1.20
2023-04-05T19:50:47.320Z,-1.40
2023-04-05T19:53:39.456Z,-1.40
2023-04-05T19:56:11.852Z,-1.50
2023-04-05T19:58:40.104Z,-1.50
2023-04-05T20:01:09.040Z,-1.60
2023-04-05T20:03:38.957Z,-1.60
2023-04-05T20:06:12.529Z,-1.60
2023-04-05T20:08:42.794Z,-1.70
2023-04-05T20:11:13.107Z,-1.80
2023-04-05T20:13:46.209Z,-1.80
2023-04-05T20:16:15.601Z,-1.90
2023-04-05T20:18:47.310Z,-1.90
2023-04-05T20:21:17.617Z,-1.90
2023-04-05T20:23:45.959Z,-2.00
2023-04-05T20:26:15.450Z,-1.90
2023-04-05T20:28:44.197Z,-1.90
2023-04-05T20:31:19.790Z,-2.00
2023-04-05T20:33:49.958Z,-2.00
2023-04-05T20:36:21.396Z,-2.10
2023-04-05T20:38:51.102Z,-2.10
2023-04-05T20:41:20.582Z,-2.10
2023-04-05T20:43:48.655Z,-2.20
2023-04-05T20:46:17.580Z,-2.20
2023-04-05T20:48:46.788Z,-2.20
2023-04-05T20:51:15.594Z,-2.10
2023-04-05T20:53:45.140Z,-2.10
2023-04-05T20:56:13.116Z,-1.90
2023-04-05T20:58:41.869Z,-1.90
2023-04-05T21:01:10.994Z,-1.90
2023-04-05T21:03:42.720Z,-1.90
2023-04-05T21:06:11.470Z,-1.90
2023-04-05T21:08:41.115Z,-2.00
2023-04-05T21:11:11.882Z,-2.10
2023-04-05T21:13:41.435Z,-2.10
2023-04-05T21:16:09.608Z,-2.20
2023-04-05T21:18:37.870Z,-2.30
2023-04-05T21:21:06.289Z,-2.30
2023-04-05T21:23:35.041Z,-2.50
2023-04-05T21:26:04.604Z,-2.50
2023-04-05T21:28:33.883Z,-2.60
2023-04-05T21:31:01.998Z,-2.60
2023-04-05T21:33:30.627Z,-2.70
2023-04-05T21:35:58.865Z,-2.80
2023-04-05T21:38:27.152Z,-2.80
2023-04-05T21:40:55.745Z,-2.80
2023-04-05T21:43:23.977Z,-2.90
2023-04-05T21:45:53.882Z,-2.90
2023-04-05T21:48:22.002Z,-3.00
2023-04-05T21:50:50.140Z,-3.00
2023-04-05T21:53:18.815Z,-3.10
2023-04-05T21:55:46.956Z,-3.10
2023-04-05T21:58:15.086Z,-3.10
2023-04-05T22:00:43.210Z,-3.10
2023-04-05T22:03:12.757Z,-3.20
2023-04-05T22:05:40.995Z,-3.20
2023-04-05T22:08:10.261Z,-3.20
2023-04-05T22:10:39.599Z,-3.30
2023-04-05T22:13:07.748Z,-3.30
2023-04-05T22:15:35.866Z,-3.30
2023-04-05T22:18:05.413Z,-3.30
2023-04-05T22:20:35.244Z,-3.30
2023-04-05T22:23:03.403Z,-3.40
2023-04-05T22:25:31.549Z,-3.40
2023-04-05T22:28:00.669Z,-3.50
2023-04-05T22:30:41.000Z,-3.40
2023-04-05T22:33:12.630Z,-3.40
2023-04-05T22:35:43.050Z,-3.40
2023-04-05T22:38:11.375Z,-3.40
2023-04-05T22:40:39.542Z,-3.50
2023-04-05T22:43:07.726Z,-3.50
2023-04-05T22:45:35.867Z,-3.60
2023-04-05T22:48:04.153Z,-3.60
2023-04-05T22:50:32.712Z,-3.60
2023-04-05T22:53:02.211Z,-3.60
2023-04-05T22:55:30.540Z,-3.70
2023-04-05T22:57:58.646Z,-3.70
2023-04-05T23:00:26.795Z,-3.70
2023-04-05T23:02:54.965Z,-3.70
2023-04-05T23:05:23.125Z,-3.80
2023-04-05T23:07:51.268Z,-3.80
2023-04-05T23:10:21.436Z,-3.80
2023-04-05T23:12:49.689Z,-3.80
2023-04-05T23:15:17.945Z,-3.80
2023-04-05T23:17:46.266Z,-3.80
2023-04-05T23:20:14.404Z,-3.90
2023-04-05T23:22:42.888Z,-3.90
2023-04-05T23:25:11.288Z,-3.90
2023-04-05T23:27:40.829Z,-4.00
2023-04-05T23:30:09.850Z,-3.90
2023-04-05T23:32:38.012Z,-4.00
2023-04-05T23:35:06.813Z,-4.00
2023-04-05T23:37:35.194Z,-4.00
2023-04-05T23:40:03.600Z,-4.00
2023-04-05T23:42:32.326Z,-4.00
2023-04-05T23:45:04.270Z,-4.00
2023-04-05T23:47:32.473Z,-4.00
2023-04-05T23:50:00.640Z,-4.10
2023-04-05T23:52:28.796Z,-4.10
2023-04-05T23:54:57.263Z,-4.20
2023-04-05T23:57:25.525Z,-4.20
2023-04-05T23:59:53.640Z,-4.20
